Lulu Pass Weather Station

This weather station is located at 10020ft near Lulu Pass at the head of Fisher Creek. This data can be used with temperature and precipitation data from the Fisher Creek SNOTEL site. This data can be viewed directly on datagarrison.com

Elevation
10020ft
Jump to table bottom
Date Time Temperature
deg F
RH, % Wind Speed Wind Gust Wind Direction
04/12/24 16:00 35.6 81 15 32 SW - 218
04/12/24 15:00 39.3 53 19 40 SW - 215
04/12/24 14:00 39.6 55 17 46 SW - 216
04/12/24 13:00 41.3 49 10 24 SW - 209
04/12/24 12:00 40.3 49 14 31 SW - 204
04/12/24 11:00 38.9 51 14 34 S - 198
04/12/24 10:00 36.6 53 17 35 S - 180
04/12/24 9:00 34.9 56 11 25 S - 161
04/12/24 8:00 30.1 68 9 23 S - 163
04/12/24 7:00 29.8 68 8 18 SW - 204
04/12/24 6:00 29.5 70 7 20 SW - 220
04/12/24 5:00 29.2 72 9 23 SW - 220
04/12/24 4:00 30.1 70 14 27 SW - 220
04/12/24 3:00 29.5 70 9 22 SW - 233
04/12/24 2:00 28.6 67 11 26 SW - 222
04/12/24 1:00 29.0 65 9 21 SW - 225
04/11/24 24:00 29.3 66 7 17 SW - 244
04/11/24 23:00 28.4 65 7 16 W - 265
04/11/24 22:00 28.2 64 7 19 W - 253
04/11/24 21:00 29.1 58 7 17 SW - 244
04/11/24 20:00 29.6 56 7 17 W - 248
04/11/24 19:00 31.3 50 9 17 SW - 243
04/11/24 18:00 31.4 49 9 20 SW - 246
04/11/24 17:00 33.7 44 9 23 W - 267
04/11/24 16:00 34.6 42 10 23 W - 271
04/11/24 15:00 35.0 40 12 25 W - 288
04/11/24 14:00 34.1 43 9 20 W - 288
04/11/24 13:00 31.4 42 10 23 NW - 299
04/11/24 12:00 29.6 53 9 18 W - 288
04/11/24 11:00 26.5 65 7 15 W - 284
04/11/24 10:00 24.3 73 6 14 W - 268
04/11/24 9:00 22.5 77 3 8 NW - 337
04/11/24 8:00 17.9 88 5 8 NW - 326
04/11/24 7:00 18.4 86 11 18 NW - 329
04/11/24 6:00 19.4 85 14 19 N - 343
04/11/24 5:00 20.6 82 13 17 N - 338
04/11/24 4:00 20.7 81 13 22 NW - 314
04/11/24 3:00 21.6 79 11 20 NW - 310
04/11/24 2:00 21.0 75 9 20 NW - 298
04/11/24 1:00 22.1 65 10 19 NW - 313
04/10/24 24:00 22.5 60 13 16 NW - 323
04/10/24 23:00 22.2 62 14 19 NW - 321
04/10/24 22:00 23.2 63 14 17 NW - 330
04/10/24 21:00 22.8 63 14 17 N - 344
04/10/24 20:00 23.0 61 14 20 N - 345
04/10/24 19:00 24.8 56 18 24 N - 341
04/10/24 18:00 24.7 55 20 27 NW - 336
04/10/24 17:00 25.8 57 18 27 NW - 324
04/10/24 16:00 24.5 62 17 26 NW - 324
04/10/24 15:00 22.4 79 17 27 NW - 329